Time;durP1;ratioP1;P1;durP2;ratioP2;P2;SDS_P1;SDS_P2;PMS_P1;PMS_P2;Temp;Humidity;BMP_temperature;BMP_pressure;BME280_temperature;BME280_humidity;BME280_pressure;Samples;Min_cycle;Max_cycle;Signal;HPM_P1;HPM_P2
2023/05/18 00:01:21;;;;;;;15.02;3.38;;;;;;;;;;4994797;28;20488;-49
2023/05/18 00:03:48;;;;;;;19.83;3.95;;;;;;;;;;4993846;28;20488;-48
2023/05/18 00:06:16;;;;;;;16.30;3.92;;;;;;;;;;4992952;28;20102;-48
2023/05/18 00:08:43;;;;;;;15.80;4.07;;;;;;;;;;4990335;28;20455;-50
2023/05/18 00:11:10;;;;;;;18.30;4.55;;;;;;;;;;4994013;28;20539;-51
2023/05/18 00:13:37;;;;;;;15.43;3.63;;;;;;;;;;4994140;28;20057;-49
2023/05/18 00:16:04;;;;;;;13.73;3.63;;;;;;;;;;4992775;28;20026;-51
2023/05/18 00:18:33;;;;;;;16.35;3.70;;;;;;;;;;4993865;28;20057;-52
2023/05/18 00:21:00;;;;;;;22.67;3.72;;;;;;;;;;4994086;28;20050;-48
2023/05/18 00:23:31;;;;;;;17.48;3.75;;;;;;;;;;4994551;28;20073;-50
2023/05/18 00:25:59;;;;;;;21.90;4.13;;;;;;;;;;4993724;28;20026;-50
2023/05/18 00:28:26;;;;;;;15.77;3.72;;;;;;;;;;4992763;28;20034;-49
2023/05/18 00:30:53;;;;;;;24.27;4.40;;;;;;;;;;4992797;28;20053;-51
2023/05/18 00:33:21;;;;;;;21.17;4.32;;;;;;;;;;4991620;28;20029;-51
2023/05/18 00:35:48;;;;;;;20.35;4.22;;;;;;;;;;4992581;28;20061;-53
2023/05/18 00:38:15;;;;;;;20.73;4.05;;;;;;;;;;4992970;28;20109;-50
2023/05/18 00:40:42;;;;;;;19.05;4.07;;;;;;;;;;4985375;28;20046;-50
2023/05/18 00:43:09;;;;;;;18.67;4.30;;;;;;;;;;4990483;28;20096;-51
2023/05/18 00:45:36;;;;;;;20.35;4.15;;;;;;;;;;4992485;28;20038;-51
2023/05/18 00:48:03;;;;;;;20.10;4.75;;;;;;;;;;4992688;28;20026;-49
2023/05/18 00:50:30;;;;;;;27.73;5.97;;;;;;;;;;4992153;28;20029;-52
2023/05/18 00:52:57;;;;;;;23.90;6.25;;;;;;;;;;4992859;28;20086;-50
2023/05/18 00:55:26;;;;;;;36.78;10.15;;;;;;;;;;4990413;28;20026;-48
2023/05/18 00:57:55;;;;;;;32.65;10.05;;;;;;;;;;4991637;28;20038;-52
2023/05/18 01:00:22;;;;;;;44.47;18.20;;;;;;;;;;4992388;28;20049;-49
2023/05/18 01:02:49;;;;;;;46.78;22.02;;;;;;;;;;4990683;28;20026;-48
2023/05/18 01:05:18;;;;;;;55.92;26.20;;;;;;;;;;4990280;28;20522;-53
2023/05/18 01:07:47;;;;;;;57.65;27.52;;;;;;;;;;4990474;28;20034;-53
2023/05/18 01:10:15;;;;;;;54.20;26.48;;;;;;;;;;4990269;28;20697;-52
2023/05/18 01:12:46;;;;;;;58.05;24.05;;;;;;;;;;4989399;28;20027;-50
2023/05/18 01:15:20;;;;;;;44.55;22.00;;;;;;;;;;4990135;28;20045;-52
2023/05/18 01:17:59;;;;;;;48.53;23.33;;;;;;;;;;4988929;28;20113;-47
2023/05/18 01:20:37;;;;;;;52.53;22.05;;;;;;;;;;4988930;28;20561;-49
2023/05/18 01:23:04;;;;;;;41.30;20.75;;;;;;;;;;4990360;28;20030;-47
2023/05/18 01:25:48;;;;;;;42.00;20.85;;;;;;;;;;4990722;28;20026;-48
2023/05/18 01:28:17;;;;;;;47.47;20.77;;;;;;;;;;4990352;28;20042;-48
2023/05/18 01:30:44;;;;;;;46.13;18.70;;;;;;;;;;4990406;28;20400;-50
2023/05/18 01:33:13;;;;;;;40.00;19.35;;;;;;;;;;4990600;28;20034;-48
2023/05/18 01:35:46;;;;;;;38.33;19.50;;;;;;;;;;4990184;28;20117;-52
2023/05/18 01:38:26;;;;;;;39.83;19.05;;;;;;;;;;4990005;28;20030;-49
2023/05/18 01:40:57;;;;;;;39.05;17.30;;;;;;;;;;4989823;28;20046;-49
2023/05/18 01:43:27;;;;;;;45.17;18.27;;;;;;;;;;4989584;28;20080;-49
2023/05/18 01:45:56;;;;;;;38.53;16.85;;;;;;;;;;4990313;28;20026;-49
2023/05/18 01:48:25;;;;;;;34.25;16.02;;;;;;;;;;4988723;28;20141;-51
2023/05/18 01:50:55;;;;;;;37.80;15.35;;;;;;;;;;4990506;28;20062;-48
2023/05/18 01:53:22;;;;;;;32.63;14.18;;;;;;;;;;4989561;28;20030;-50
2023/05/18 01:55:50;;;;;;;37.17;15.00;;;;;;;;;;4989223;28;20054;-47
2023/05/18 01:58:18;;;;;;;43.88;14.82;;;;;;;;;;4990639;28;20030;-49
2023/05/18 02:00:46;;;;;;;28.83;13.32;;;;;;;;;;4990928;28;20069;-50
2023/05/18 02:03:14;;;;;;;29.77;13.10;;;;;;;;;;4991846;28;20034;-49
2023/05/18 02:05:41;;;;;;;28.83;12.70;;;;;;;;;;4991849;28;20048;-50
2023/05/18 02:08:08;;;;;;;30.95;12.95;;;;;;;;;;4990750;28;20484;-49
2023/05/18 02:10:35;;;;;;;28.92;11.40;;;;;;;;;;4991322;28;20037;-50
2023/05/18 02:13:02;;;;;;;28.15;11.35;;;;;;;;;;4992023;28;20038;-47
2023/05/18 02:15:29;;;;;;;28.20;10.35;;;;;;;;;;4991474;28;20026;-46
2023/05/18 02:17:56;;;;;;;28.20;10.25;;;;;;;;;;4992090;28;20072;-51
2023/05/18 02:20:24;;;;;;;27.15;10.30;;;;;;;;;;4989804;28;20030;-51
2023/05/18 02:22:51;;;;;;;23.40;10.18;;;;;;;;;;4992091;28;20064;-47
2023/05/18 02:25:18;;;;;;;28.20;10.40;;;;;;;;;;4992048;28;20380;-48
2023/05/18 02:27:46;;;;;;;26.15;9.55;;;;;;;;;;4989027;28;20050;-50
2023/05/18 02:30:13;;;;;;;27.48;9.65;;;;;;;;;;4991222;28;20026;-47
2023/05/18 02:32:41;;;;;;;26.70;9.45;;;;;;;;;;4991326;28;20031;-47
2023/05/18 02:35:09;;;;;;;22.23;8.40;;;;;;;;;;4990929;28;20133;-47
2023/05/18 02:37:41;;;;;;;19.30;7.88;;;;;;;;;;4991246;28;20038;-48
2023/05/18 02:40:11;;;;;;;19.38;7.82;;;;;;;;;;4990762;28;20095;-51
2023/05/18 02:42:38;;;;;;;19.40;7.47;;;;;;;;;;4989195;28;20034;-48
2023/05/18 02:45:06;;;;;;;19.35;7.07;;;;;;;;;;4991081;28;20042;-47
2023/05/18 02:47:33;;;;;;;18.02;6.72;;;;;;;;;;4991150;28;20088;-47
2023/05/18 02:50:00;;;;;;;17.55;6.32;;;;;;;;;;4991020;28;20041;-47
2023/05/18 02:52:27;;;;;;;22.70;6.43;;;;;;;;;;4990848;28;20046;-50
2023/05/18 02:54:54;;;;;;;14.52;6.13;;;;;;;;;;4988548;28;20038;-47
2023/05/18 02:57:22;;;;;;;17.75;6.50;;;;;;;;;;4990764;28;20076;-46
2023/05/18 02:59:49;;;;;;;16.65;5.60;;;;;;;;;;4990860;28;20026;-50
2023/05/18 03:02:16;;;;;;;16.65;6.15;;;;;;;;;;4990588;28;20057;-49
2023/05/18 03:04:43;;;;;;;16.75;5.43;;;;;;;;;;4991522;28;20550;-49
2023/05/18 03:07:10;;;;;;;15.55;5.22;;;;;;;;;;4992246;28;20400;-50
2023/05/18 03:09:37;;;;;;;18.83;4.93;;;;;;;;;;4992260;28;20049;-48
2023/05/18 03:12:04;;;;;;;13.32;5.25;;;;;;;;;;4992977;28;20026;-49
2023/05/18 03:14:31;;;;;;;12.82;4.63;;;;;;;;;;4996258;28;20034;-50
2023/05/18 03:16:59;;;;;;;11.25;4.13;;;;;;;;;;4996180;28;20772;-49
2023/05/18 03:19:26;;;;;;;11.10;4.30;;;;;;;;;;4996238;28;20375;-48
2023/05/18 03:21:53;;;;;;;11.27;4.53;;;;;;;;;;4996063;28;20397;-49
2023/05/18 03:24:20;;;;;;;19.20;5.00;;;;;;;;;;4996040;28;20113;-48
2023/05/18 03:26:47;;;;;;;11.60;4.15;;;;;;;;;;4995875;28;20041;-48
2023/05/18 03:29:14;;;;;;;11.18;4.00;;;;;;;;;;4995990;28;20113;-50
2023/05/18 03:31:41;;;;;;;10.73;3.97;;;;;;;;;;4996046;28;20035;-49
2023/05/18 03:34:08;;;;;;;12.30;4.00;;;;;;;;;;4995853;28;20026;-49
2023/05/18 03:36:37;;;;;;;10.38;3.88;;;;;;;;;;4995767;28;20093;-48
2023/05/18 03:39:08;;;;;;;11.10;3.70;;;;;;;;;;4995749;28;20049;-48
2023/05/18 03:41:35;;;;;;;10.80;3.80;;;;;;;;;;4995453;28;20057;-49
2023/05/18 03:44:02;;;;;;;9.68;3.53;;;;;;;;;;4995615;28;20079;-49
2023/05/18 03:46:29;;;;;;;10.25;3.78;;;;;;;;;;4995368;28;20030;-48
2023/05/18 03:48:56;;;;;;;9.90;3.35;;;;;;;;;;4995633;28;20026;-48
2023/05/18 03:51:25;;;;;;;7.68;3.15;;;;;;;;;;4995558;28;20038;-48
2023/05/18 03:53:52;;;;;;;11.20;3.28;;;;;;;;;;4995443;28;20038;-48
2023/05/18 03:56:19;;;;;;;8.15;3.10;;;;;;;;;;4995414;28;20485;-48
2023/05/18 03:58:46;;;;;;;9.75;3.67;;;;;;;;;;4995530;28;20022;-48
2023/05/18 04:01:13;;;;;;;7.65;2.97;;;;;;;;;;4995325;28;20485;-49
2023/05/18 04:03:41;;;;;;;7.30;2.78;;;;;;;;;;4995366;28;20022;-48
2023/05/18 04:06:09;;;;;;;9.40;3.10;;;;;;;;;;4995173;28;20046;-48
2023/05/18 04:08:36;;;;;;;11.10;3.05;;;;;;;;;;4995168;28;20038;-48
2023/05/18 04:11:04;;;;;;;7.03;3.08;;;;;;;;;;4995404;28;20077;-50
2023/05/18 04:13:31;;;;;;;8.57;3.17;;;;;;;;;;4995086;28;20109;-48
2023/05/18 04:15:58;;;;;;;8.25;2.90;;;;;;;;;;4995052;28;20058;-49
2023/05/18 04:18:28;;;;;;;8.40;2.80;;;;;;;;;;4995003;28;20058;-48
2023/05/18 04:20:56;;;;;;;8.75;2.72;;;;;;;;;;4994922;28;20057;-48
2023/05/18 04:23:23;;;;;;;9.73;2.38;;;;;;;;;;4994830;28;20041;-52
2023/05/18 04:25:50;;;;;;;8.15;2.78;;;;;;;;;;4994897;28;20034;-48
2023/05/18 04:28:18;;;;;;;9.13;2.60;;;;;;;;;;4994797;28;20023;-48
2023/05/18 04:30:44;;;;;;;7.15;2.80;;;;;;;;;;4994955;28;20045;-48
2023/05/18 04:33:14;;;;;;;6.15;2.47;;;;;;;;;;4994797;28;20037;-48
2023/05/18 04:35:41;;;;;;;6.03;2.05;;;;;;;;;;4994681;28;20069;-49
2023/05/18 04:38:09;;;;;;;8.35;2.78;;;;;;;;;;4994571;28;20086;-48
2023/05/18 04:40:36;;;;;;;5.45;2.17;;;;;;;;;;4994174;28;20050;-47
2023/05/18 04:43:04;;;;;;;6.82;2.60;;;;;;;;;;4994580;28;20793;-47
2023/05/18 04:45:32;;;;;;;5.93;2.30;;;;;;;;;;4994634;28;20085;-46
2023/05/18 04:48:00;;;;;;;4.95;2.17;;;;;;;;;;4994438;28;20042;-48
2023/05/18 04:50:27;;;;;;;4.95;1.95;;;;;;;;;;4994498;28;20038;-47
2023/05/18 04:52:56;;;;;;;5.30;2.17;;;;;;;;;;4994445;28;20026;-47
2023/05/18 04:55:26;;;;;;;5.43;2.08;;;;;;;;;;4994309;28;20034;-47
2023/05/18 04:57:57;;;;;;;8.70;2.58;;;;;;;;;;4994355;28;20038;-47
2023/05/18 05:00:24;;;;;;;4.78;2.08;;;;;;;;;;4994179;28;20027;-48
2023/05/18 05:02:51;;;;;;;5.25;2.10;;;;;;;;;;4994216;28;20374;-48
2023/05/18 05:05:18;;;;;;;5.50;2.03;;;;;;;;;;4994156;28;20069;-46
2023/05/18 05:07:45;;;;;;;4.88;2.05;;;;;;;;;;4994021;28;20496;-47
2023/05/18 05:10:12;;;;;;;5.65;1.95;;;;;;;;;;4994186;28;20069;-47
2023/05/18 05:12:41;;;;;;;4.78;2.03;;;;;;;;;;4994212;28;20093;-48
2023/05/18 05:15:08;;;;;;;3.85;1.70;;;;;;;;;;4994047;28;20026;-47
2023/05/18 05:17:35;;;;;;;4.70;1.83;;;;;;;;;;4993940;28;20559;-47
2023/05/18 05:20:02;;;;;;;6.43;1.70;;;;;;;;;;4994016;28;20023;-47
2023/05/18 05:22:29;;;;;;;5.25;1.70;;;;;;;;;;4993919;28;20108;-46
2023/05/18 05:24:56;;;;;;;4.70;1.70;;;;;;;;;;4993721;28;20033;-53
2023/05/18 05:27:25;;;;;;;4.20;1.90;;;;;;;;;;4993912;28;20101;-47
2023/05/18 05:29:52;;;;;;;4.40;2.00;;;;;;;;;;4993947;28;20034;-49
2023/05/18 05:32:19;;;;;;;4.43;1.95;;;;;;;;;;4993651;28;20030;-47
2023/05/18 05:34:46;;;;;;;4.03;1.65;;;;;;;;;;4992953;28;20041;-47
2023/05/18 05:37:14;;;;;;;4.63;1.70;;;;;;;;;;4993438;28;20034;-47
2023/05/18 05:39:41;;;;;;;5.43;2.00;;;;;;;;;;4993333;28;20512;-47
2023/05/18 05:42:08;;;;;;;3.70;1.40;;;;;;;;;;4993451;28;20730;-51
2023/05/18 05:44:35;;;;;;;4.65;1.55;;;;;;;;;;4993445;28;20385;-47
2023/05/18 05:47:02;;;;;;;5.18;1.67;;;;;;;;;;4993522;28;20034;-47
2023/05/18 05:49:29;;;;;;;2.80;1.40;;;;;;;;;;4993513;28;20031;-47
2023/05/18 05:51:56;;;;;;;3.05;1.60;;;;;;;;;;4993352;28;20045;-47
2023/05/18 05:54:23;;;;;;;3.90;1.75;;;;;;;;;;4993366;28;20030;-46
2023/05/18 05:56:50;;;;;;;6.22;1.60;;;;;;;;;;4993292;28;20105;-47
2023/05/18 05:59:17;;;;;;;3.53;1.63;;;;;;;;;;4993258;28;20030;-47
2023/05/18 06:01:44;;;;;;;2.53;1.25;;;;;;;;;;4991735;28;20043;-47
2023/05/18 06:04:11;;;;;;;2.90;1.60;;;;;;;;;;4992691;28;20042;-47
2023/05/18 06:06:38;;;;;;;3.47;1.75;;;;;;;;;;4992918;28;20040;-48
2023/05/18 06:09:05;;;;;;;4.65;1.83;;;;;;;;;;4993000;28;20039;-47
2023/05/18 06:11:32;;;;;;;4.80;1.70;;;;;;;;;;4993079;28;20039;-47
2023/05/18 06:13:59;;;;;;;5.93;1.55;;;;;;;;;;4992984;28;20571;-48
2023/05/18 06:16:27;;;;;;;2.70;1.30;;;;;;;;;;4992889;28;20518;-48
2023/05/18 06:18:54;;;;;;;2.90;1.40;;;;;;;;;;4992899;28;20481;-47
2023/05/18 06:21:21;;;;;;;2.35;1.10;;;;;;;;;;4992794;28;20050;-48
2023/05/18 06:23:48;;;;;;;5.28;1.20;;;;;;;;;;4992868;28;20066;-49
2023/05/18 06:26:15;;;;;;;2.50;1.40;;;;;;;;;;4992690;28;20528;-48
2023/05/18 06:28:43;;;;;;;2.55;1.30;;;;;;;;;;4991448;28;20614;-50
2023/05/18 06:31:11;;;;;;;2.22;1.33;;;;;;;;;;4992694;28;20460;-48
2023/05/18 06:33:38;;;;;;;3.53;1.40;;;;;;;;;;4992510;28;20068;-48
2023/05/18 06:36:05;;;;;;;2.72;1.13;;;;;;;;;;4992607;28;20153;-48
2023/05/18 06:38:32;;;;;;;2.47;1.20;;;;;;;;;;4992627;28;20026;-49
2023/05/18 06:40:59;;;;;;;2.78;1.30;;;;;;;;;;4992163;28;20042;-48
2023/05/18 06:43:27;;;;;;;3.08;1.30;;;;;;;;;;4992447;28;20101;-48
2023/05/18 06:45:54;;;;;;;2.92;1.30;;;;;;;;;;4992432;28;20026;-47
2023/05/18 06:48:24;;;;;;;2.88;1.20;;;;;;;;;;4992474;28;20480;-46
2023/05/18 06:50:51;;;;;;;3.22;1.40;;;;;;;;;;4992412;28;20072;-49
2023/05/18 06:53:18;;;;;;;2.55;1.30;;;;;;;;;;4992319;28;20026;-48
2023/05/18 06:55:45;;;;;;;3.05;1.38;;;;;;;;;;4992302;28;20014;-48
2023/05/18 06:58:12;;;;;;;2.03;1.08;;;;;;;;;;4992176;28;20023;-49
2023/05/18 07:00:39;;;;;;;2.42;1.20;;;;;;;;;;4992209;28;20038;-48
2023/05/18 07:03:07;;;;;;;3.15;1.23;;;;;;;;;;4992348;28;20022;-48
2023/05/18 07:05:34;;;;;;;2.85;1.38;;;;;;;;;;4992140;28;20030;-48
2023/05/18 07:08:03;;;;;;;3.28;1.30;;;;;;;;;;4992165;28;20026;-48
2023/05/18 07:10:30;;;;;;;2.70;1.20;;;;;;;;;;4992046;28;20154;-48
2023/05/18 07:12:57;;;;;;;2.15;1.10;;;;;;;;;;4992191;28;20026;-49
2023/05/18 07:15:25;;;;;;;2.95;1.05;;;;;;;;;;4992116;28;20392;-48
2023/05/18 07:17:52;;;;;;;2.40;0.93;;;;;;;;;;4992121;28;20022;-48
2023/05/18 07:20:19;;;;;;;2.45;1.02;;;;;;;;;;4992093;28;20027;-48
2023/05/18 07:22:46;;;;;;;2.22;0.88;;;;;;;;;;4992151;28;20097;-48
2023/05/18 07:25:13;;;;;;;2.35;1.00;;;;;;;;;;4991998;28;20041;-48
2023/05/18 07:27:40;;;;;;;2.03;1.00;;;;;;;;;;4992028;28;20045;-49
2023/05/18 07:30:08;;;;;;;2.10;1.10;;;;;;;;;;4992011;28;20023;-48
2023/05/18 07:32:35;;;;;;;2.42;0.90;;;;;;;;;;4992011;28;20031;-49
2023/05/18 07:35:02;;;;;;;2.08;1.08;;;;;;;;;;4991995;28;20027;-49
2023/05/18 07:37:29;;;;;;;2.72;1.25;;;;;;;;;;4991899;28;20029;-49
2023/05/18 07:39:56;;;;;;;1.92;0.90;;;;;;;;;;4991647;28;20023;-48
2023/05/18 07:42:23;;;;;;;4.25;1.00;;;;;;;;;;4991854;28;20049;-46
2023/05/18 07:44:51;;;;;;;2.22;1.20;;;;;;;;;;4991758;28;20022;-48
2023/05/18 07:47:20;;;;;;;2.42;1.00;;;;;;;;;;4991955;28;20477;-47
2023/05/18 07:49:47;;;;;;;1.80;0.90;;;;;;;;;;4991726;28;20069;-46
2023/05/18 07:52:14;;;;;;;2.63;0.90;;;;;;;;;;4991888;28;20030;-47
2023/05/18 07:54:41;;;;;;;2.55;0.98;;;;;;;;;;4991836;28;20427;-48
2023/05/18 07:57:08;;;;;;;2.13;1.10;;;;;;;;;;4991803;28;20085;-46
2023/05/18 07:59:35;;;;;;;2.20;1.00;;;;;;;;;;4993608;28;20026;-47
2023/05/18 08:02:02;;;;;;;2.00;1.00;;;;;;;;;;4995292;28;20121;-46
2023/05/18 08:04:29;;;;;;;1.77;0.82;;;;;;;;;;4995333;28;20169;-48
2023/05/18 08:06:59;;;;;;;3.38;1.00;;;;;;;;;;4995302;28;20384;-47
2023/05/18 08:09:27;;;;;;;2.90;0.90;;;;;;;;;;4995233;28;20113;-46
2023/05/18 08:11:54;;;;;;;1.55;0.80;;;;;;;;;;4995274;28;20514;-46
2023/05/18 08:14:21;;;;;;;2.17;0.90;;;;;;;;;;4994966;28;20109;-47
2023/05/18 08:16:48;;;;;;;1.40;0.85;;;;;;;;;;4995274;28;20073;-46
2023/05/18 08:19:15;;;;;;;2.10;0.90;;;;;;;;;;4995164;28;20792;-48
2023/05/18 08:21:44;;;;;;;4.03;0.85;;;;;;;;;;4995037;28;20058;-49
2023/05/18 08:24:11;;;;;;;1.90;0.70;;;;;;;;;;4994911;28;20177;-48
2023/05/18 08:26:38;;;;;;;1.88;0.55;;;;;;;;;;4994879;28;20049;-49
2023/05/18 08:29:08;;;;;;;1.60;0.80;;;;;;;;;;4995072;28;20492;-49
2023/05/18 08:31:39;;;;;;;1.90;0.70;;;;;;;;;;4994740;28;20042;-48
2023/05/18 08:34:06;;;;;;;2.08;0.90;;;;;;;;;;4994861;28;20026;-48
2023/05/18 08:36:37;;;;;;;1.42;0.70;;;;;;;;;;4994880;28;20019;-48
2023/05/18 08:39:04;;;;;;;2.03;0.75;;;;;;;;;;4994728;28;20019;-48
2023/05/18 08:41:50;;;;;;;2.30;0.70;;;;;;;;;;4994551;28;20065;-49
2023/05/18 08:44:22;;;;;;;1.00;0.70;;;;;;;;;;4994585;28;20041;-48
2023/05/18 08:46:52;;;;;;;1.27;0.63;;;;;;;;;;4994703;28;20026;-48
2023/05/18 08:49:20;;;;;;;1.92;0.70;;;;;;;;;;4994535;28;20393;-48
2023/05/18 08:51:48;;;;;;;2.45;0.90;;;;;;;;;;4994491;28;20030;-48
2023/05/18 08:54:18;;;;;;;1.67;0.82;;;;;;;;;;4994342;28;20022;-48
2023/05/18 08:56:46;;;;;;;1.23;0.63;;;;;;;;;;4994352;28;20072;-48
2023/05/18 08:59:14;;;;;;;3.60;0.68;;;;;;;;;;4994430;28;20366;-48
2023/05/18 09:01:42;;;;;;;1.30;0.70;;;;;;;;;;4994357;28;20169;-49
2023/05/18 09:04:09;;;;;;;1.58;0.88;;;;;;;;;;4993914;28;20030;-48
2023/05/18 09:06:37;;;;;;;1.50;0.80;;;;;;;;;;4994305;28;20034;-48
2023/05/18 09:09:05;;;;;;;2.70;0.60;;;;;;;;;;4993778;28;20022;-47
2023/05/18 09:11:35;;;;;;;1.00;0.47;;;;;;;;;;4993464;28;20031;-48
2023/05/18 09:14:02;;;;;;;1.67;0.80;;;;;;;;;;4982218;28;20050;-47
2023/05/18 09:16:29;;;;;;;2.55;0.88;;;;;;;;;;4982972;28;20085;-48
2023/05/18 09:18:56;;;;;;;1.67;0.70;;;;;;;;;;4981815;28;20041;-50
2023/05/18 09:21:23;;;;;;;4.07;1.00;;;;;;;;;;4983133;28;20515;-48
2023/05/18 09:23:51;;;;;;;1.83;0.85;;;;;;;;;;4978798;28;20094;-48
2023/05/18 09:26:20;;;;;;;4.03;0.70;;;;;;;;;;4974566;28;20027;-48
2023/05/18 09:28:51;;;;;;;3.70;0.85;;;;;;;;;;4988653;28;20109;-47
2023/05/18 09:31:18;;;;;;;5.05;0.93;;;;;;;;;;4989718;28;20034;-47
2023/05/18 09:33:46;;;;;;;6.35;0.80;;;;;;;;;;4990027;28;20217;-50
2023/05/18 09:36:23;;;;;;;4.68;1.10;;;;;;;;;;4989899;28;20208;-48
2023/05/18 09:38:50;;;;;;;;;;;;;;;;;;4989445;28;20026;-47
2023/05/18 09:41:17;;;;;;;4.53;0.90;;;;;;;;;;4987714;28;19922;-48
2023/05/18 09:43:45;;;;;;;3.55;0.82;;;;;;;;;;4973952;28;20512;-50
2023/05/18 09:46:13;;;;;;;6.78;1.10;;;;;;;;;;4974121;28;20038;-47
2023/05/18 09:48:47;;;;;;;3.20;0.88;;;;;;;;;;4972783;28;20037;-47
2023/05/18 09:51:17;;;;;;;5.88;0.93;;;;;;;;;;4973979;28;20453;-47
2023/05/18 09:53:58;;;;;;;2.08;0.80;;;;;;;;;;4973801;28;20089;-49
2023/05/18 09:56:26;;;;;;;6.97;0.90;;;;;;;;;;4973960;28;20065;-47
2023/05/18 09:58:56;;;;;;;5.05;1.13;;;;;;;;;;4973804;28;20031;-47
2023/05/18 10:01:23;;;;;;;4.43;0.88;;;;;;;;;;4973826;28;20069;-46
2023/05/18 10:03:50;;;;;;;1.92;0.77;;;;;;;;;;4973733;28;20042;-49
2023/05/18 10:06:18;;;;;;;9.77;1.20;;;;;;;;;;4973820;28;20489;-47
2023/05/18 10:08:46;;;;;;;5.70;0.95;;;;;;;;;;4973573;28;20041;-49
2023/05/18 10:11:13;;;;;;;4.00;0.93;;;;;;;;;;4973091;28;20109;-52
2023/05/18 10:13:42;;;;;;;8.20;1.10;;;;;;;;;;4989754;28;20062;-45
2023/05/18 10:16:09;;;;;;;5.40;0.90;;;;;;;;;;4992042;28;20034;-48
2023/05/18 10:18:37;;;;;;;4.60;0.93;;;;;;;;;;4991655;28;20038;-50
2023/05/18 10:21:06;;;;;;;4.55;0.90;;;;;;;;;;4991833;28;20042;-50
2023/05/18 10:23:34;;;;;;;4.93;0.85;;;;;;;;;;4992299;28;20035;-48
2023/05/18 10:26:05;;;;;;;3.35;0.88;;;;;;;;;;4992654;28;20397;-49
2023/05/18 10:28:36;;;;;;;6.20;1.00;;;;;;;;;;4989921;28;20117;-49
2023/05/18 10:31:04;;;;;;;3.60;0.70;;;;;;;;;;4991970;28;20109;-48
2023/05/18 10:33:31;;;;;;;2.10;0.77;;;;;;;;;;4989861;28;20088;-48
2023/05/18 10:35:58;;;;;;;2.53;0.80;;;;;;;;;;4991613;28;20388;-45
2023/05/18 10:38:27;;;;;;;2.00;0.70;;;;;;;;;;4989321;28;20484;-48
2023/05/18 10:40:59;;;;;;;2.28;0.60;;;;;;;;;;4990652;28;20065;-48
2023/05/18 10:43:26;;;;;;;1.83;0.63;;;;;;;;;;4991601;28;20046;-47
2023/05/18 10:45:54;;;;;;;1.45;0.70;;;;;;;;;;4991499;28;20126;-48
2023/05/18 10:48:22;;;;;;;3.42;0.70;;;;;;;;;;4990216;28;20626;-47
2023/05/18 10:50:50;;;;;;;2.95;0.82;;;;;;;;;;4990908;28;20026;-46
2023/05/18 10:53:21;;;;;;;2.97;0.70;;;;;;;;;;4991526;28;20023;-48
2023/05/18 10:55:49;;;;;;;1.35;0.65;;;;;;;;;;4990985;28;20451;-47
2023/05/18 10:58:18;;;;;;;1.83;0.60;;;;;;;;;;4992258;28;20046;-49
2023/05/18 11:00:48;;;;;;;4.15;0.88;;;;;;;;;;4987105;28;20030;-51
2023/05/18 11:03:16;;;;;;;3.22;0.93;;;;;;;;;;4972775;28;20035;-47
2023/05/18 11:05:43;;;;;;;2.28;0.55;;;;;;;;;;4971652;28;20034;-47
2023/05/18 11:08:10;;;;;;;2.75;0.55;;;;;;;;;;4981406;28;20025;-47
2023/05/18 11:10:41;;;;;;;1.65;0.60;;;;;;;;;;4986743;28;20037;-51
2023/05/18 11:13:12;;;;;;;1.25;0.70;;;;;;;;;;4978690;28;20057;-48
2023/05/18 11:15:51;;;;;;;1.77;0.60;;;;;;;;;;4980976;28;20062;-50
2023/05/18 11:18:18;;;;;;;2.38;0.85;;;;;;;;;;4989907;28;20034;-47
2023/05/18 11:20:46;;;;;;;2.22;0.65;;;;;;;;;;4978797;28;20034;-53
2023/05/18 11:23:19;;;;;;;2.30;0.80;;;;;;;;;;4980169;28;20384;-48
2023/05/18 11:25:49;;;;;;;10.45;0.98;;;;;;;;;;4982130;28;20026;-48
2023/05/18 11:28:16;;;;;;;1.60;0.63;;;;;;;;;;4989353;28;20571;-48
2023/05/18 11:30:43;;;;;;;4.28;0.85;;;;;;;;;;4983859;28;20507;-51
2023/05/18 11:33:24;;;;;;;6.10;1.15;;;;;;;;;;4989285;28;20138;-46
2023/05/18 11:35:54;;;;;;;3.55;0.88;;;;;;;;;;4994168;28;20436;-47
2023/05/18 11:38:21;;;;;;;4.68;0.90;;;;;;;;;;4989322;28;20038;-50
2023/05/18 11:40:49;;;;;;;3.17;0.60;;;;;;;;;;4988556;28;20049;-50
2023/05/18 11:43:23;;;;;;;8.05;0.93;;;;;;;;;;4983311;28;20485;-48
2023/05/18 11:45:56;;;;;;;5.70;0.80;;;;;;;;;;4980223;28;20088;-50
2023/05/18 11:48:30;;;;;;;5.50;1.05;;;;;;;;;;4976030;28;20066;-49
2023/05/18 11:50:57;;;;;;;2.83;0.93;;;;;;;;;;4973761;28;20039;-47
2023/05/18 11:53:25;;;;;;;4.63;1.02;;;;;;;;;;4972945;28;20366;-50
2023/05/18 11:55:58;;;;;;;3.88;0.80;;;;;;;;;;4974368;28;20089;-51
2023/05/18 11:58:26;;;;;;;5.88;1.20;;;;;;;;;;4973208;28;20038;-48
2023/05/18 12:00:53;;;;;;;5.93;0.93;;;;;;;;;;4973284;28;20047;-51
2023/05/18 12:03:24;;;;;;;5.10;1.10;;;;;;;;;;4972478;28;20039;-53
2023/05/18 12:05:51;;;;;;;4.63;1.00;;;;;;;;;;4974045;28;20048;-50
2023/05/18 12:08:19;;;;;;;3.88;0.90;;;;;;;;;;4973885;28;20576;-52
2023/05/18 12:10:46;;;;;;;3.58;0.80;;;;;;;;;;4973786;28;20121;-51
2023/05/18 12:13:14;;;;;;;10.82;1.27;;;;;;;;;;4974101;28;20434;-47
2023/05/18 12:15:42;;;;;;;5.65;1.00;;;;;;;;;;4972428;28;20125;-51
2023/05/18 12:18:09;;;;;;;5.60;1.13;;;;;;;;;;4973658;28;20062;-49
2023/05/18 12:20:39;;;;;;;6.25;1.00;;;;;;;;;;4971927;28;20070;-50
2023/05/18 12:23:06;;;;;;;2.63;0.70;;;;;;;;;;4973454;28;20038;-48
2023/05/18 12:25:33;;;;;;;9.60;0.95;;;;;;;;;;4972256;28;20215;-50
2023/05/18 12:28:01;;;;;;;2.55;0.90;;;;;;;;;;4974176;28;20026;-49
2023/05/18 12:30:33;;;;;;;6.05;0.93;;;;;;;;;;4975522;28;20027;-48
2023/05/18 12:33:05;;;;;;;3.35;0.75;;;;;;;;;;4975438;28;20130;-47
2023/05/18 12:35:32;;;;;;;5.20;0.85;;;;;;;;;;4975359;28;20034;-48
2023/05/18 12:38:00;;;;;;;3.65;0.88;;;;;;;;;;4975412;28;20441;-50
2023/05/18 12:40:28;;;;;;;3.53;0.70;;;;;;;;;;4975024;28;20055;-48
2023/05/18 12:42:55;;;;;;;4.22;0.88;;;;;;;;;;4975382;28;20086;-49
2023/05/18 12:45:27;;;;;;;6.00;1.08;;;;;;;;;;4975048;28;20027;-51
2023/05/18 12:47:54;;;;;;;3.20;0.80;;;;;;;;;;4975237;28;20422;-49
2023/05/18 12:50:25;;;;;;;1.33;0.55;;;;;;;;;;4975082;28;20105;-52
2023/05/18 12:52:52;;;;;;;3.95;0.90;;;;;;;;;;4975142;28;20093;-52
2023/05/18 12:55:26;;;;;;;1.10;0.60;;;;;;;;;;4974561;28;20034;-48
2023/05/18 12:58:02;;;;;;;2.72;0.90;;;;;;;;;;4988313;28;20874;-52
2023/05/18 13:00:37;;;;;;;2.58;0.93;;;;;;;;;;4993840;28;20039;-49
2023/05/18 13:03:12;;;;;;;2.60;1.05;;;;;;;;;;4994025;28;20038;-48
2023/05/18 13:05:44;;;;;;;4.47;0.80;;;;;;;;;;4994016;28;20404;-49
2023/05/18 13:08:18;;;;;;;3.10;0.85;;;;;;;;;;4994054;28;20400;-49
2023/05/18 13:10:45;;;;;;;2.33;0.73;;;;;;;;;;4993924;28;20096;-49
2023/05/18 13:13:15;;;;;;;7.05;0.80;;;;;;;;;;4994313;28;20129;-48
2023/05/18 13:15:42;;;;;;;6.80;0.90;;;;;;;;;;4992775;28;20113;-49
2023/05/18 13:18:10;;;;;;;3.55;0.90;;;;;;;;;;4994024;28;20186;-50
2023/05/18 13:20:40;;;;;;;2.65;0.75;;;;;;;;;;4993942;28;20034;-48
2023/05/18 13:23:11;;;;;;;5.57;0.85;;;;;;;;;;4994021;28;20026;-48
2023/05/18 13:25:38;;;;;;;2.92;0.88;;;;;;;;;;4993878;28;20030;-50
2023/05/18 13:28:06;;;;;;;3.92;0.73;;;;;;;;;;4993986;28;20101;-50
2023/05/18 13:30:33;;;;;;;6.22;0.70;;;;;;;;;;4993883;28;20061;-48
2023/05/18 13:33:00;;;;;;;5.93;0.88;;;;;;;;;;4993914;28;20034;-48
2023/05/18 13:35:27;;;;;;;3.85;0.88;;;;;;;;;;4993736;28;20041;-47
2023/05/18 13:37:54;;;;;;;3.58;1.00;;;;;;;;;;4993737;28;20097;-48
2023/05/18 13:40:24;;;;;;;3.58;1.00;;;;;;;;;;4993532;28;20559;-49
2023/05/18 13:42:51;;;;;;;3.60;0.80;;;;;;;;;;4993501;28;20149;-48
2023/05/18 13:45:20;;;;;;;4.82;0.80;;;;;;;;;;4993435;28;20400;-47
2023/05/18 13:47:52;;;;;;;2.58;0.80;;;;;;;;;;4993388;28;20031;-48
2023/05/18 13:50:19;;;;;;;2.75;0.70;;;;;;;;;;4993434;28;20038;-48
2023/05/18 13:52:47;;;;;;;4.30;0.70;;;;;;;;;;4993358;28;20050;-52
2023/05/18 13:55:14;;;;;;;4.38;1.05;;;;;;;;;;4993223;28;20030;-49
2023/05/18 13:57:41;;;;;;;3.30;0.60;;;;;;;;;;4993050;28;20026;-48
2023/05/18 14:00:12;;;;;;;2.92;0.90;;;;;;;;;;4993303;28;20038;-48
2023/05/18 14:02:42;;;;;;;1.60;0.50;;;;;;;;;;4993289;28;20038;-51
2023/05/18 14:05:12;;;;;;;1.25;0.60;;;;;;;;;;4993115;28;20100;-46
2023/05/18 14:07:40;;;;;;;3.17;0.65;;;;;;;;;;4993202;28;20102;-49
2023/05/18 14:10:08;;;;;;;3.55;0.95;;;;;;;;;;4993161;28;20077;-49
2023/05/18 14:12:36;;;;;;;5.45;1.15;;;;;;;;;;4993009;28;20432;-52
2023/05/18 14:15:03;;;;;;;2.47;0.70;;;;;;;;;;4993057;28;20026;-48
2023/05/18 14:17:31;;;;;;;2.75;0.80;;;;;;;;;;4992998;28;20041;-50
2023/05/18 14:19:59;;;;;;;4.93;0.90;;;;;;;;;;4992930;28;20045;-49
2023/05/18 14:22:26;;;;;;;2.15;0.60;;;;;;;;;;4992890;28;20030;-52
2023/05/18 14:24:53;;;;;;;1.25;0.50;;;;;;;;;;4993096;28;20124;-50
2023/05/18 14:27:20;;;;;;;2.00;0.70;;;;;;;;;;4992872;28;20042;-48
2023/05/18 14:29:48;;;;;;;1.38;0.70;;;;;;;;;;4992828;28;20033;-50
2023/05/18 14:32:15;;;;;;;2.00;0.90;;;;;;;;;;4992727;28;20041;-50
2023/05/18 14:34:42;;;;;;;2.25;0.57;;;;;;;;;;4992673;28;20484;-49
2023/05/18 14:37:09;;;;;;;1.17;0.60;;;;;;;;;;4992977;28;20698;-48
2023/05/18 14:39:56;;;;;;;3.05;0.60;;;;;;;;;;4992676;28;20100;-51
2023/05/18 14:42:23;;;;;;;2.75;0.50;;;;;;;;;;4991245;28;20137;-51
2023/05/18 14:44:50;;;;;;;2.10;0.57;;;;;;;;;;4992493;28;20034;-49